createdAt,value
2022-12-11T00:01:41.653Z,16.75
2022-12-11T00:04:10.202Z,13.85
2022-12-11T00:06:38.468Z,13.38
2022-12-11T00:09:06.856Z,13.20
2022-12-11T00:11:35.256Z,13.75
2022-12-11T00:14:04.223Z,13.55
2022-12-11T00:16:32.452Z,12.10
2022-12-11T00:19:00.878Z,12.60
2022-12-11T00:21:29.186Z,12.65
2022-12-11T00:23:57.841Z,11.23
2022-12-11T00:26:27.586Z,12.15
2022-12-11T00:28:57.759Z,11.68
2022-12-11T00:31:26.302Z,10.57
2022-12-11T00:33:55.625Z,11.98
2022-12-11T00:36:26.736Z,14.43
2022-12-11T00:38:55.852Z,16.35
2022-12-11T00:41:24.172Z,15.38
2022-12-11T00:43:52.595Z,13.48
2022-12-11T00:46:21.708Z,13.30
2022-12-11T00:48:49.973Z,13.07
2022-12-11T00:51:19.124Z,12.88
2022-12-11T00:53:47.687Z,15.63
2022-12-11T00:56:24.991Z,17.48
2022-12-11T00:58:53.647Z,17.27
2022-12-11T01:01:24.537Z,16.85
2022-12-11T01:03:54.019Z,15.27
2022-12-11T01:06:25.216Z,18.80
2022-12-11T01:08:55.163Z,18.25
2022-12-11T01:11:23.357Z,19.80
2022-12-11T01:13:51.530Z,20.92
2022-12-11T01:16:19.911Z,17.33
2022-12-11T01:18:48.311Z,17.83
2022-12-11T01:21:16.497Z,15.25
2022-12-11T01:23:44.714Z,14.38
2022-12-11T01:26:15.835Z,13.55
2022-12-11T01:28:45.239Z,14.25
2022-12-11T01:31:15.130Z,13.80
2022-12-11T01:33:43.713Z,13.15
2022-12-11T01:36:18.005Z,14.90
2022-12-11T01:38:47.435Z,14.10
2022-12-11T01:41:17.056Z,14.00
2022-12-11T01:43:58.402Z,11.88
2022-12-11T01:46:27.843Z,12.55
2022-12-11T01:48:56.611Z,11.43
2022-12-11T01:51:25.753Z,10.63
2022-12-11T01:54:01.523Z,11.15
2022-12-11T01:56:31.896Z,10.70
2022-12-11T01:59:04.089Z,11.45
2022-12-11T02:04:04.172Z,13.20
2022-12-11T02:06:41.534Z,12.50
2022-12-11T02:09:19.004Z,12.85
2022-12-11T02:12:21.003Z,12.73
2022-12-11T02:15:04.423Z,13.80
2022-12-11T02:18:26.891Z,12.48
2022-12-11T02:21:11.694Z,13.30
2022-12-11T02:24:06.944Z,13.20
2022-12-11T02:26:55.533Z,13.65
2022-12-11T02:29:52.061Z,13.48
2022-12-11T02:32:59.644Z,14.75
2022-12-11T02:35:38.576Z,13.45
2022-12-11T02:38:15.791Z,14.35
2022-12-11T02:40:45.504Z,13.82
2022-12-11T02:43:17.021Z,14.85
2022-12-11T02:45:47.572Z,15.07
2022-12-11T02:48:17.692Z,13.98
2022-12-11T02:50:53.061Z,14.57
2022-12-11T02:53:24.830Z,13.20
2022-12-11T02:56:27.285Z,13.60
2022-12-11T02:59:01.394Z,13.68
2022-12-11T03:01:30.445Z,14.35
2022-12-11T03:03:59.243Z,13.27
2022-12-11T03:06:42.267Z,13.68
2022-12-11T03:09:10.928Z,14.80
2022-12-11T03:11:39.234Z,14.27
2022-12-11T03:14:08.971Z,16.13
2022-12-11T03:16:52.668Z,16.48
2022-12-11T03:19:40.579Z,16.48
2022-12-11T03:22:34.931Z,16.75
2022-12-11T03:25:08.116Z,16.05
2022-12-11T03:27:48.889Z,16.30
2022-12-11T03:30:22.155Z,16.98
2022-12-11T03:32:56.678Z,16.90
2022-12-11T03:35:36.309Z,18.55
2022-12-11T03:38:12.142Z,17.95
2022-12-11T03:40:42.152Z,18.20
2022-12-11T03:43:12.516Z,22.15
2022-12-11T03:45:42.481Z,22.08
2022-12-11T03:48:12.111Z,23.23
2022-12-11T03:50:42.247Z,25.77
2022-12-11T03:53:12.011Z,26.60
2022-12-11T03:55:41.225Z,28.88
2022-12-11T03:58:09.381Z,27.27
2022-12-11T04:00:38.380Z,26.92
2022-12-11T04:03:12.621Z,26.77
2022-12-11T04:05:47.242Z,26.27
2022-12-11T04:08:16.467Z,26.92
2022-12-11T04:10:44.792Z,27.55
2022-12-11T04:13:14.587Z,27.08
2022-12-11T04:15:42.703Z,29.35
2022-12-11T04:18:11.418Z,26.80
2022-12-11T04:20:40.183Z,26.88
2022-12-11T04:23:19.393Z,27.88
2022-12-11T04:25:47.711Z,25.98
2022-12-11T04:28:16.506Z,27.52
2022-12-11T04:30:50.195Z,28.70
2022-12-11T04:33:18.487Z,28.23
2022-12-11T04:35:47.163Z,28.00
2022-12-11T04:38:15.439Z,27.70
2022-12-11T04:40:43.611Z,28.50
2022-12-11T04:43:11.923Z,28.85
2022-12-11T04:45:39.957Z,28.38
2022-12-11T04:48:08.236Z,29.25
2022-12-11T04:50:36.538Z,30.02
2022-12-11T04:53:04.622Z,29.13
2022-12-11T04:55:32.983Z,31.98
2022-12-11T04:58:01.330Z,35.40
2022-12-11T05:00:29.673Z,33.90
2022-12-11T05:02:57.848Z,36.75
2022-12-11T05:05:26.279Z,34.47
2022-12-11T05:07:54.459Z,36.05
2022-12-11T05:10:22.598Z,36.28
2022-12-11T05:12:50.895Z,35.90
2022-12-11T05:15:19.281Z,34.65
2022-12-11T05:17:47.496Z,34.65
2022-12-11T05:20:16.059Z,34.05
2022-12-11T05:22:44.340Z,31.15
2022-12-11T05:25:12.727Z,27.38
2022-12-11T05:27:41.407Z,28.02
2022-12-11T05:30:10.115Z,26.70
2022-12-11T05:32:38.420Z,26.08
2022-12-11T05:35:07.052Z,26.17
2022-12-11T05:37:36.477Z,24.85
2022-12-11T05:40:05.611Z,26.17
2022-12-11T05:42:35.251Z,25.42
2022-12-11T05:47:46.388Z,25.10
2022-12-11T05:50:14.534Z,25.35
2022-12-11T05:52:42.872Z,23.60
2022-12-11T05:55:11.326Z,24.45
2022-12-11T05:57:39.635Z,23.55
2022-12-11T06:00:08.716Z,21.25
2022-12-11T06:02:37.762Z,21.77
2022-12-11T06:05:06.416Z,19.25
2022-12-11T06:07:34.565Z,20.27
2022-12-11T06:10:02.971Z,18.63
2022-12-11T06:12:31.593Z,25.70
2022-12-11T06:14:59.814Z,23.75
2022-12-11T06:17:28.201Z,22.83
2022-12-11T06:19:56.323Z,22.45
2022-12-11T06:22:24.490Z,21.23
2022-12-11T06:24:52.817Z,22.77
2022-12-11T06:27:21.030Z,21.67
2022-12-11T06:29:50.196Z,20.88
2022-12-11T06:32:19.135Z,21.20
2022-12-11T06:34:47.385Z,21.88
2022-12-11T21:11:58.470Z,56.15
2022-12-11T21:14:27.051Z,59.70
2022-12-11T21:16:55.597Z,59.05
2022-12-11T21:19:23.983Z,72.72
2022-12-11T21:21:52.672Z,67.00
2022-12-11T21:24:24.985Z,58.28
2022-12-11T21:26:54.599Z,55.53
2022-12-11T21:29:24.629Z,44.13
2022-12-11T21:31:53.631Z,34.03
2022-12-11T21:34:25.281Z,22.15
2022-12-11T21:39:22.704Z,30.88
2022-12-11T21:41:50.867Z,22.85
2022-12-11T21:47:07.616Z,21.63
2022-12-11T21:49:37.699Z,30.70
2022-12-11T21:52:06.169Z,23.98
2022-12-11T21:54:34.477Z,24.67
2022-12-11T21:57:02.911Z,41.47
2022-12-11T21:59:31.291Z,25.35
2022-12-11T22:02:00.982Z,32.72
2022-12-11T22:04:29.352Z,27.02
2022-12-11T22:06:57.558Z,18.15
2022-12-11T22:09:26.001Z,19.42
2022-12-11T22:11:58.383Z,19.75
2022-12-11T22:14:27.979Z,21.55
2022-12-11T22:16:56.108Z,20.92
2022-12-11T22:19:27.829Z,22.83
2022-12-11T22:22:00.723Z,18.88
2022-12-11T22:24:29.081Z,16.33
2022-12-11T22:26:57.493Z,14.13
2022-12-11T22:29:25.852Z,15.85
2022-12-11T22:31:54.090Z,21.25
2022-12-11T22:34:22.756Z,29.27
2022-12-11T22:36:51.221Z,40.03
2022-12-11T22:39:19.368Z,29.42
2022-12-11T22:41:47.813Z,20.52
2022-12-11T22:44:18.563Z,15.13
2022-12-11T22:46:50.248Z,14.23
2022-12-11T22:51:48.470Z,16.05
2022-12-11T22:54:16.812Z,19.00
2022-12-11T22:56:45.164Z,21.77
2022-12-11T22:59:13.503Z,22.77
2022-12-11T23:01:42.146Z,22.98
2022-12-11T23:04:10.543Z,21.23
2022-12-11T23:06:38.813Z,17.23
2022-12-11T23:09:07.724Z,19.92
2022-12-11T23:11:38.384Z,19.10
2022-12-11T23:14:09.346Z,20.20
2022-12-11T23:16:38.053Z,17.00
2022-12-11T23:19:07.191Z,17.00
2022-12-11T23:21:36.127Z,15.10
2022-12-11T23:24:05.350Z,14.93
2022-12-11T23:26:33.948Z,17.08
2022-12-11T23:29:02.822Z,16.40
2022-12-11T23:31:31.488Z,16.77
2022-12-11T23:34:00.096Z,17.17
2022-12-11T23:36:29.131Z,16.75
2022-12-11T23:38:57.377Z,17.75
2022-12-11T23:41:26.479Z,17.58
2022-12-11T23:43:54.733Z,19.52
2022-12-11T23:46:24.889Z,22.63
2022-12-11T23:48:54.184Z,41.38
2022-12-11T23:51:24.189Z,34.35
2022-12-11T23:53:53.091Z,29.02
2022-12-11T23:56:24.520Z,19.10
2022-12-11T23:58:54.021Z,16.67
